Terminal Aerodrome Forecast
Issued by NWS

Home | Current Version | Previous Version | Text Only | Print | Product List | Glossary On
Versions: 1 2 3 4 5 6 7 8 9 10 11 12 13 14 15 16 17 18 19 20 21
000
FTUS41 KPBZ 280527
TAFDUJ
TAF
KDUJ 280527Z 2806/0106 14005KT P6SM OVC060
     FM281700 15008KT P6SM VCSH OVC050
     FM282000 16010G20KT P6SM -RA OVC025
     FM282200 17009KT P6SM -RA OVC015
     FM010000 18012KT P6SM VCSH OVC006=

USA.gov is the U.S. government's official web portal to all federal, state and local government web resources and services.